Oriana — ZCDU9 — position and weather

sailwx.info

Track history (hours):
 
Tides and Currents Weather Stations Pressure Air Temp Water Temp Dewpoint Dewpoint Depression Visibility Wind Speed Wind Dir Waves Ship Positions

Oriana (Bermuda)

Last reported at 2014-Sep-17 10:30 UTC. Time now 2014-Sep-17 11:31 UTC.
Position N 47°45' W 005°12'.

Length 261 m; beam 32.2 m; draft 8.2 m.

Type: Ship. MMSI: 310529000.

Date/timePositionNaut miles runAvg speedWind from/ knotsBaromVisibWave heightAir tempDewpointWater temp
2014-Sep-17 10:30N 47°45' W 005°12'5511.1
2014-Sep-17 05:33N 47°13' W 004°06'4711.7
2014-Sep-17 01:33N 46°46' W 003°10'2612.3
2014-Sep-16 23:28N 46°31' W 002°40'1112.2
2014-Sep-16 22:34N 46°25' W 002°26'1212.1
2014-Sep-16 21:33N 46°19' W 002°10'1211.9
2014-Sep-16 20:32N 46°13' W 001°55'1211.9
2014-Sep-16 19:33N 46°08' W 001°40'1312.5
2014-Sep-16 18:33N 46°07' W 001°22'6 0.7
2014-Sep-16 09:16N 46°10' W 001°14'0 0.0
2014-Sep-16 08:33N 46°10' W 001°14'5 1.7
2014-Sep-16 05:33N 46°06' W 001°19'1312.8
2014-Sep-16 04:33N 46°08' W 001°38'1111.5
2014-Sep-16 03:33N 46°00' W 001°50'1313.4
2014-Sep-16 02:33N 45°48' W 001°56'1514.6
2014-Sep-16 01:34N 45°34' W 002°03'1414.3
2014-Sep-16 00:34N 45°20' W 002°10'1414.2
2014-Sep-15 23:33N 45°07' W 002°16'1514.1
2014-Sep-15 22:31N 44°53' W 002°23'1414.3
2014-Sep-15 21:33N 44°40' W 002°30'2014.3
2014-Sep-15 20:09N 44°21' W 002°39'914.2
2014-Sep-15 19:33N 44°13' W 002°43'1514.0
2014-Sep-15 18:28N 43°59' W 002°50'1213.0
2014-Sep-15 17:33N 43°48' W 002°55'1312.7
2014-Sep-15 16:33N 43°35' W 003°01'1312.6
2014-Sep-15 15:34N 43°23' W 003°05'271 5.4
2014-Sep-13 13:10N 47°22' W 006°09'1015.9
2014-Sep-13 12:33N 47°31' W 006°03'1615.5
2014-Sep-13 11:33N 47°45' W 005°54'1615.5
2014-Sep-13 10:33N 47°59' W 005°45'1615.8
2014-Sep-13 09:33N 48°14' W 005°36'1716.9
2014-Sep-13 08:33N 48°30' W 005°26'1313.1
2014-Sep-13 07:33N 48°40' W 005°13'1312.9
2014-Sep-13 06:33N 48°48' W 004°59'1313.4
2014-Sep-13 05:33N 48°58' W 004°44'15315.3
2014-Sep-12 19:33N 50°24' W 001°29'1515.0
2014-Sep-12 18:33N 50°31' W 001°08'1313.0
2014-Sep-12 17:33N 50°43' W 001°00'1413.6
2014-Sep-12 16:33N 50°50' W 001°19'5 4.9
2014-Sep-12 15:33N 50°53' W 001°24'0 0.0
2014-Sep-12 14:33N 50°53' W 001°24'0 0.0
2014-Sep-12 13:33N 50°53' W 001°24'0 0.0
2014-Sep-12 12:33N 50°53' W 001°24'0 0.0
2014-Sep-12 11:33N 50°53' W 001°24'0 0.0
2014-Sep-12 10:33N 50°53' W 001°24'0 0.0
2014-Sep-12 09:33N 50°53' W 001°24'0 0.0
2014-Sep-12 07:15N 50°53' W 001°24'0 0.0
2014-Sep-12 06:33N 50°53' W 001°24'0 0.3
2014-Sep-12 05:33N 50°53' W 001°24'6 6.0
2014-Sep-12 04:33N 50°49' W 001°18'1211.9
2014-Sep-12 03:33N 50°43' W 001°01'8 8.2
2014-Sep-12 02:33N 50°38' W 000°52'1313.3
2014-Sep-12 01:34N 50°35' W 000°31'1717.5
2014-Sep-12 00:34N 50°33' W 000°04'1917.3
2014-Sep-11 23:29N 50°36' E 000°25'1516.3
2014-Sep-11 22:34N 50°42' E 000°47'1716.8
2014-Sep-11 21:34N 50°51' E 001°09'1716.8
2014-Sep-11 20:34N 51°02' E 001°29'1717.2
2014-Sep-11 19:34N 51°15' E 001°47'1716.9
2014-Sep-11 18:33N 51°29' E 002°02'1716.6
2014-Sep-11 17:33N 51°42' E 002°20'45011.8
2014-Sep-10 03:25N 57°51' E 009°48'2121.9
2014-Sep-10 02:26N 57°51' E 010°28'1820.9
2014-Sep-10 01:33N 57°44' E 010°60'2121.4
2014-Sep-10 00:33N 57°28' E 011°26'2222.0
2014-Sep-09 23:33N 57°07' E 011°41'2221.9
2014-Sep-09 22:33N 56°47' E 011°56'2121.4
2014-Sep-09 21:33N 56°26' E 012°02'1918.9
2014-Sep-09 20:33N 56°11' E 012°24'1515.4
2014-Sep-09 19:33N 55°59' E 012°41'1514.9
2014-Sep-09 18:33N 55°44' E 012°40'3 3.2
2014-Sep-09 17:30N 55°42' E 012°36'0 0.0
2014-Sep-09 16:31N 55°42' E 012°36'0 0.0
2014-Sep-09 15:33N 55°42' E 012°36'0 0.0
2014-Sep-09 14:33N 55°42' E 012°36'0 0.0
2014-Sep-09 13:33N 55°42' E 012°36'0 0.0
2014-Sep-09 12:29N 55°42' E 012°36'0 0.0
2014-Sep-09 11:32N 55°42' E 012°36'0 0.0
2014-Sep-09 10:31N 55°42' E 012°36'0 0.0
2014-Sep-09 09:31N 55°42' E 012°36'0 0.0
2014-Sep-09 08:31N 55°42' E 012°36'0 0.0
2014-Sep-09 07:31N 55°42' E 012°36'0 0.0
2014-Sep-09 06:31N 55°42' E 012°36'1 0.9
2014-Sep-09 05:34N 55°43' E 012°37'1211.6
2014-Sep-09 04:34N 55°54' E 012°39'1312.9
2014-Sep-09 03:33N 56°06' E 012°31'1515.1
2014-Sep-09 02:33N 56°12' E 012°06'10510.5
2014-Sep-08 16:33N 54°28' E 011°38'1615.8
2014-Sep-08 15:33N 54°19' E 012°00'9 8.7
2014-Sep-08 14:32N 54°11' E 012°06'0 0.0
2014-Sep-08 13:29N 54°11' E 012°06'0 0.0
2014-Sep-08 12:32N 54°11' E 012°06'0 0.0
2014-Sep-08 11:32N 54°11' E 012°06'0 0.0
2014-Sep-08 10:14N 54°11' E 012°06'0 0.0
2014-Sep-08 09:32N 54°11' E 012°06'0 0.0
2014-Sep-08 08:32N 54°11' E 012°06'0 0.0
2014-Sep-08 07:32N 54°11' E 012°06'0 0.0
2014-Sep-08 06:23N 54°11' E 012°06'0 0.2
2014-Sep-08 05:33N 54°10' E 012°06'1111.6
2014-Sep-08 04:33N 54°21' E 011°57'1312.9
2014-Sep-08 03:33N 54°30' E 012°13'1717.0
2014-Sep-08 02:33N 54°43' E 012°33'1817.3
2014-Sep-08 01:33N 54°51' E 012°60'1717.4
2014-Sep-08 00:33N 54°57' E 013°28'1817.9
2014-Sep-07 23:33N 55°03' E 013°57'1919.6
2014-Sep-07 22:34N 55°16' E 014°22'1919.3
2014-Sep-07 21:33N 55°31' E 014°44'2019.9
2014-Sep-07 20:34N 55°40' E 015°15'2019.9
2014-Sep-07 19:33N 55°51' E 015°45'2019.7
2014-Sep-07 18:33N 55°60' E 016°16'2019.7
2014-Sep-07 17:33N 56°09' E 016°47'2019.7
2014-Sep-07 16:33N 56°21' E 017°16'2419.6
2014-Sep-07 15:20N 56°35' E 017°50'1519.8
2014-Sep-07 14:34N 56°44' E 018°13'2020.0
2014-Sep-07 13:33N 56°57' E 018°41'4920.0
2014-Sep-07 11:05N 57°37' E 019°34'  
Track history (hours):
 
Tides and Currents Weather Stations Pressure Air Temp Water Temp Dewpoint Dewpoint Depression Visibility Wind Speed Wind Dir Waves Ship Positions

Oriana (Bermuda)

Last reported at 2014-Sep-17 10:30 UTC. Time now 2014-Sep-17 11:31 UTC.
Position N 47°45' W 005°12'.

Length 261 m; beam 32.2 m; draft 8.2 m.

Type: Ship. MMSI: 310529000.

Date/timePositionNaut miles runAvg speedWind from/ knotsBaromVisibWave heightAir tempDewpointWater temp
2014-Sep-17 10:30N 47°45' W 005°12'5511.1
2014-Sep-17 05:33N 47°13' W 004°06'4711.7
2014-Sep-17 01:33N 46°46' W 003°10'2612.3
2014-Sep-16 23:28N 46°31' W 002°40'1112.2
2014-Sep-16 22:34N 46°25' W 002°26'1212.1
2014-Sep-16 21:33N 46°19' W 002°10'1211.9
2014-Sep-16 20:32N 46°13' W 001°55'1211.9
2014-Sep-16 19:33N 46°08' W 001°40'1312.5
2014-Sep-16 18:33N 46°07' W 001°22'6 0.7
2014-Sep-16 09:16N 46°10' W 001°14'0 0.0
2014-Sep-16 08:33N 46°10' W 001°14'5 1.7
2014-Sep-16 05:33N 46°06' W 001°19'1312.8
2014-Sep-16 04:33N 46°08' W 001°38'1111.5
2014-Sep-16 03:33N 46°00' W 001°50'1313.4
2014-Sep-16 02:33N 45°48' W 001°56'1514.6
2014-Sep-16 01:34N 45°34' W 002°03'1414.3
2014-Sep-16 00:34N 45°20' W 002°10'1414.2
2014-Sep-15 23:33N 45°07' W 002°16'1514.1
2014-Sep-15 22:31N 44°53' W 002°23'1414.3
2014-Sep-15 21:33N 44°40' W 002°30'2014.3
2014-Sep-15 20:09N 44°21' W 002°39'914.2
2014-Sep-15 19:33N 44°13' W 002°43'1514.0
2014-Sep-15 18:28N 43°59' W 002°50'1213.0
2014-Sep-15 17:33N 43°48' W 002°55'1312.7
2014-Sep-15 16:33N 43°35' W 003°01'1312.6
2014-Sep-15 15:34N 43°23' W 003°05'271 5.4
2014-Sep-13 13:10N 47°22' W 006°09'1015.9
2014-Sep-13 12:33N 47°31' W 006°03'1615.5
2014-Sep-13 11:33N 47°45' W 005°54'1615.5
2014-Sep-13 10:33N 47°59' W 005°45'1615.8
2014-Sep-13 09:33N 48°14' W 005°36'1716.9
2014-Sep-13 08:33N 48°30' W 005°26'1313.1
2014-Sep-13 07:33N 48°40' W 005°13'1312.9
2014-Sep-13 06:33N 48°48' W 004°59'1313.4
2014-Sep-13 05:33N 48°58' W 004°44'15315.3
2014-Sep-12 19:33N 50°24' W 001°29'1515.0
2014-Sep-12 18:33N 50°31' W 001°08'1313.0
2014-Sep-12 17:33N 50°43' W 001°00'1413.6
2014-Sep-12 16:33N 50°50' W 001°19'5 4.9
2014-Sep-12 15:33N 50°53' W 001°24'0 0.0
2014-Sep-12 14:33N 50°53' W 001°24'0 0.0
2014-Sep-12 13:33N 50°53' W 001°24'0 0.0
2014-Sep-12 12:33N 50°53' W 001°24'0 0.0
2014-Sep-12 11:33N 50°53' W 001°24'0 0.0
2014-Sep-12 10:33N 50°53' W 001°24'0 0.0
2014-Sep-12 09:33N 50°53' W 001°24'0 0.0
2014-Sep-12 07:15N 50°53' W 001°24'0 0.0
2014-Sep-12 06:33N 50°53' W 001°24'0 0.3
2014-Sep-12 05:33N 50°53' W 001°24'6 6.0
2014-Sep-12 04:33N 50°49' W 001°18'1211.9
2014-Sep-12 03:33N 50°43' W 001°01'8 8.2
2014-Sep-12 02:33N 50°38' W 000°52'1313.3
2014-Sep-12 01:34N 50°35' W 000°31'1717.5
2014-Sep-12 00:34N 50°33' W 000°04'1917.3
2014-Sep-11 23:29N 50°36' E 000°25'1516.3
2014-Sep-11 22:34N 50°42' E 000°47'1716.8
2014-Sep-11 21:34N 50°51' E 001°09'1716.8
2014-Sep-11 20:34N 51°02' E 001°29'1717.2
2014-Sep-11 19:34N 51°15' E 001°47'1716.9
2014-Sep-11 18:33N 51°29' E 002°02'1716.6
2014-Sep-11 17:33N 51°42' E 002°20'45011.8
2014-Sep-10 03:25N 57°51' E 009°48'2121.9
2014-Sep-10 02:26N 57°51' E 010°28'1820.9
2014-Sep-10 01:33N 57°44' E 010°60'2121.4
2014-Sep-10 00:33N 57°28' E 011°26'2222.0
2014-Sep-09 23:33N 57°07' E 011°41'2221.9
2014-Sep-09 22:33N 56°47' E 011°56'2121.4
2014-Sep-09 21:33N 56°26' E 012°02'1918.9
2014-Sep-09 20:33N 56°11' E 012°24'1515.4
2014-Sep-09 19:33N 55°59' E 012°41'1514.9
2014-Sep-09 18:33N 55°44' E 012°40'3 3.2
2014-Sep-09 17:30N 55°42' E 012°36'0 0.0
2014-Sep-09 16:31N 55°42' E 012°36'0 0.0
2014-Sep-09 15:33N 55°42' E 012°36'0 0.0
2014-Sep-09 14:33N 55°42' E 012°36'0 0.0
2014-Sep-09 13:33N 55°42' E 012°36'0 0.0
2014-Sep-09 12:29N 55°42' E 012°36'0 0.0
2014-Sep-09 11:32N 55°42' E 012°36'0 0.0
2014-Sep-09 10:31N 55°42' E 012°36'0 0.0
2014-Sep-09 09:31N 55°42' E 012°36'0 0.0
2014-Sep-09 08:31N 55°42' E 012°36'0 0.0
2014-Sep-09 07:31N 55°42' E 012°36'0 0.0
2014-Sep-09 06:31N 55°42' E 012°36'1 0.9
2014-Sep-09 05:34N 55°43' E 012°37'1211.6
2014-Sep-09 04:34N 55°54' E 012°39'1312.9
2014-Sep-09 03:33N 56°06' E 012°31'1515.1
2014-Sep-09 02:33N 56°12' E 012°06'10510.5
2014-Sep-08 16:33N 54°28' E 011°38'1615.8
2014-Sep-08 15:33N 54°19' E 012°00'9 8.7
2014-Sep-08 14:32N 54°11' E 012°06'0 0.0
2014-Sep-08 13:29N 54°11' E 012°06'0 0.0
2014-Sep-08 12:32N 54°11' E 012°06'0 0.0
2014-Sep-08 11:32N 54°11' E 012°06'0 0.0
2014-Sep-08 10:14N 54°11' E 012°06'0 0.0
2014-Sep-08 09:32N 54°11' E 012°06'0 0.0
2014-Sep-08 08:32N 54°11' E 012°06'0 0.0
2014-Sep-08 07:32N 54°11' E 012°06'0 0.0
2014-Sep-08 06:23N 54°11' E 012°06'0 0.2
2014-Sep-08 05:33N 54°10' E 012°06'1111.6
2014-Sep-08 04:33N 54°21' E 011°57'1312.9
2014-Sep-08 03:33N 54°30' E 012°13'1717.0
2014-Sep-08 02:33N 54°43' E 012°33'1817.3
2014-Sep-08 01:33N 54°51' E 012°60'1717.4
2014-Sep-08 00:33N 54°57' E 013°28'1817.9
2014-Sep-07 23:33N 55°03' E 013°57'1919.6
2014-Sep-07 22:34N 55°16' E 014°22'1919.3
2014-Sep-07 21:33N 55°31' E 014°44'2019.9
2014-Sep-07 20:34N 55°40' E 015°15'2019.9
2014-Sep-07 19:33N 55°51' E 015°45'2019.7
2014-Sep-07 18:33N 55°60' E 016°16'2019.7
2014-Sep-07 17:33N 56°09' E 016°47'2019.7
2014-Sep-07 16:33N 56°21' E 017°16'2419.6
2014-Sep-07 15:20N 56°35' E 017°50'1519.8
2014-Sep-07 14:34N 56°44' E 018°13'2020.0
2014-Sep-07 13:33N 56°57' E 018°41'4920.0
2014-Sep-07 11:05N 57°37' E 019°34'  

Dump ship's entire track history